Location Glendale, AZ, US

ob KWR6634 180930Z AUTO 05000KT FEW180 08/01 A3014 RMK SLPNO 

2018.01.18 0930 UTC
Wind from the NE (51 degrees) at Calm MPH ( KT) gusting to 0.0 MPH (0 KT)
Visibility    Mile(s)
Sky Conditions  partly cloudy
Temperature 46.50 F (8 C)
Dew Point 33.79 F (1 C)
Relative Humidity 61%
Pressure   30.14 in. Hg (1021 hPa)
Rain  0.00 in.
Daily Rain  in.

Station Name  My Glendale Arizona Weather Station
Longitude, Latitude  -112.20133199999998, 33.58645
Elevation 1180
Station URL www.myglendalewxs.com
Software Type VWS V15.00